Data for 05/30/2016

Time Sea-Level Adjusted Pressure Absolute Pressure Temperature Relative Humidity Dew Point   
(mb) (inHg) (mb) (inHg) (C) (F) (%) (C) (F)
00:05 1018 30.06 847 25.01 13 55.4 49 2.5 36.5
00:10 1018 30.06 847 25.01 13 55.3 49 2.5 36.6
00:15 1018 30.06 847 25.01 12.9 55.2 49 2.5 36.6
00:20 1018 30.06 847 25.01 12.8 55 51 2.8 37.1
00:25 1018 30.06 847 25.01 12.5 54.6 51 2.7 36.8
00:30 1018 30.06 847 25.01 12.4 54.3 52 2.8 37
00:35 1018 30.06 847 25.01 12.1 53.7 53 2.9 37.2
00:40 1018 30.06 847 25.01 11.8 53.2 53 2.7 36.8
00:45 1018 30.06 847 25.01 11.7 53.1 53 2.6 36.7
00:50 1018 30.06 847 25.01 11.8 53.2 53 2.6 36.7
00:55 1018 30.06 847 25.01 11.6 52.9 55 2.9 37.2
01:00 1018 30.06 847 25.01 11.3 52.4 56 2.8 37.1
01:05 1018 30.06 847 25.01 11.3 52.3 55 2.7 36.9
01:10 1018 30.06 848 25.04 11.1 52 57 2.9 37.2
01:15 1018 30.06 848 25.04 11 51.7 56 2.6 36.7
01:20 1018 30.06 848 25.04 11.1 51.9 56 2.6 36.6
01:25 1018 30.06 848 25.04 11.1 52.1 55 2.4 36.3
01:30 1018 30.06 848 25.04 11.4 52.4 56 2.8 37.1
01:35 1018 30.06 848 25.04 11.3 52.4 56 3 37.3
01:40 1018 30.06 848 25.04 11.3 52.4 53 2.1 35.8
01:45 1018 30.06 848 25.04 11.6 52.9 53 2.4 36.3
01:50 1019 30.09 848 25.04 11.6 52.8 54 2.7 36.8
01:55 1019 30.09 848 25.04 11.5 52.8 54 2.5 36.5
02:00 1019 30.09 848 25.04 11.5 52.7 55 2.7 36.9
02:05 1019 30.09 848 25.04 11.3 52.4 57 3 37.5
02:10 1019 30.09 848 25.04 10.9 51.6 57 2.8 37
02:15 1019 30.09 848 25.04 10.7 51.3 59 3.2 37.7
02:20 1019 30.09 848 25.04 10.5 51 62 3.5 38.3
02:25 1019 30.09 848 25.04 10.4 50.7 61 3.3 37.9
02:30 1019 30.09 848 25.04 10.3 50.6 61 3.3 37.9
02:35 1019 30.09 848 25.04 10.3 50.6 61 3.2 37.8
02:40 1019 30.09 848 25.04 10.4 50.8 60 3 37.5
02:45 1019 30.09 848 25.04 10.6 51 60 3.1 37.7
02:50 1019 30.09 848 25.04 10.7 51.2 59 3 37.5
02:55 1019 30.09 848 25.04 10.8 51.4 58 3 37.4
03:00 1019 30.09 848 25.04 10.9 51.7 58 3.1 37.5
03:05 1019 30.09 848 25.04 11 51.8 56 2.7 36.9
03:10 1019 30.09 848 25.04 11.1 52 57 2.9 37.2
03:15 1019 30.09 848 25.04 11.1 51.9 57 2.9 37.2
03:20 1019 30.09 848 25.04 11.1 51.9 57 2.9 37.3
03:25 1019 30.09 848 25.04 11 51.8 58 3.2 37.8
03:30 1019 30.09 848 25.04 10.9 51.6 59 3.3 37.9
03:35 1019 30.09 848 25.04 10.8 51.4 59 3.2 37.8
03:40 1019 30.09 848 25.04 10.7 51.3 60 3.3 37.9
03:45 1019 30.09 848 25.04 10.7 51.2 60 3.3 38
03:50 1019 30.09 848 25.04 10.7 51.2 62 3.8 38.9
03:55 1019 30.09 848 25.04 10.6 51.1 63 3.8 38.9
04:00 1019 30.09 848 25.04 10.5 50.9 62 3.6 38.5
04:05 1019 30.09 848 25.04 10.4 50.7 65 4.1 39.5
04:10 1019 30.09 848 25.04 10.4 50.6 63 3.8 38.8
04:15 1019 30.09 848 25.04 10.4 50.6 61 3.3 38
04:20 1019 30.09 848 25.04 10.4 50.7 62 3.4 38.2
04:25 1019 30.09 848 25.04 10.4 50.7 62 3.4 38.1
04:30 1019 30.09 848 25.04 10.4 50.7 62 3.5 38.3
04:35 1019 30.09 849 25.07 10.5 50.9 64 3.9 39.1
04:40 1019 30.09 849 25.07 10.5 50.8 65 4.3 39.7
04:45 1019 30.09 849 25.07 10.3 50.5 67 4.5 40.1
04:50 1020 30.12 849 25.07 10.1 50.3 67 4.3 39.8
04:55 1020 30.12 849 25.07 10 50.1 68 4.4 39.9
05:00 1020 30.12 849 25.07 9.9 49.8 66 4 39.1
05:05 1020 30.12 849 25.07 9.9 49.8 68 4.3 39.8
05:10 1020 30.12 849 25.07 9.9 49.8 71 4.9 40.8
05:15 1020 30.12 849 25.07 9.7 49.4 72 5 40.9
05:20 1020 30.12 849 25.07 9.7 49.4 70 4.5 40
05:25 1020 30.12 849 25.07 9.8 49.7 72 5 41
05:30 1020 30.12 849 25.07 9.7 49.5 73 5.1 41.2
05:35 1020 30.12 849 25.07 9.7 49.5 72 4.9 40.9
05:40 1020 30.12 849 25.07 9.7 49.5 74 5.4 41.6
05:45 1020 30.12 849 25.07 9.5 49.2 75 5.4 41.7
05:50 1020 30.12 849 25.07 9.5 49 76 5.4 41.7
05:55 1020 30.12 849 25.07 9.4 49 77 5.6 42
06:00 1020 30.12 849 25.07 9.5 49.2 76 5.4 41.8
06:05 1020 30.12 849 25.07 9.6 49.3 77 5.8 42.4
06:10 1020 30.12 849 25.07 9.5 49 77 5.7 42.2
06:15 1020 30.12 849 25.07 9.3 48.8 78 5.7 42.3
06:20 1020 30.12 849 25.07 9.1 48.4 78 5.6 42
06:25 1020 30.12 849 25.07 9.2 48.6 78 5.7 42.2
06:30 1020 30.12 849 25.07 9.4 48.9 79 5.9 42.6
06:35 1020 30.12 849 25.07 9.5 49 78 5.8 42.5
06:40 1020 30.12 849 25.07 9.6 49.2 75 5.4 41.8
06:45 1020 30.12 849 25.07 9.7 49.4 75 5.4 41.8
06:50 1020 30.12 849 25.07 9.8 49.6 73 5.2 41.4
06:55 1020 30.12 849 25.07 9.8 49.7 73 5.3 41.5
07:00 1020 30.12 849 25.07 9.9 49.8 74 5.4 41.8
07:05 1020 30.12 849 25.07 10.1 50.2 70 5 41
07:10 1020 30.12 849 25.07 10.1 50.2 71 5.1 41.2
07:15 1020 30.12 849 25.07 10.2 50.3 72 5.4 41.7
07:20 1020 30.12 849 25.07 10.3 50.5 74 5.8 42.5
07:25 1020 30.12 849 25.07 10.4 50.8 73 5.9 42.6
07:30 1020 30.12 849 25.07 10.6 51 72 5.7 42.3
07:35 1020 30.12 849 25.07 10.7 51.3 69 5.4 41.7
07:40 1020 30.12 849 25.07 11.2 52.1 69 5.8 42.4
07:45 1020 30.12 849 25.07 11.9 53.4 64 5.4 41.8
07:50 1020 30.12 849 25.07 12.2 53.9 55 3.4 38.2
07:55 1020 30.12 849 25.07 12.1 53.7 59 4.3 39.8
08:00 1020 30.12 849 25.07 12 53.7 57 3.8 38.8
08:05 1020 30.12 849 25.07 12 53.6 54 3 37.4
08:10 1020 30.12 849 25.07 12.3 54.2 53 3 37.4
08:15 1020 30.12 849 25.07 12.3 54.1 55 3.6 38.5
08:20 1020 30.12 849 25.07 12.6 54.6 51 2.9 37.1
08:25 1020 30.12 849 25.07 12.4 54.4 53 3.2 37.7
08:30 1020 30.12 849 25.07 12.3 54.1 54 3.4 38.2
08:35 1020 30.12 849 25.07 12.7 54.8 53 3.5 38.3
08:40 1020 30.12 849 25.07 13 55.3 52 3.4 38.2
08:45 1020 30.12 849 25.07 13.2 55.7 52 3.6 38.5
08:50 1020 30.12 849 25.07 13.3 55.9 47 2.2 36
08:55 1020 30.12 849 25.07 13.5 56.3 46 2.3 36.1
09:00 1020 30.12 849 25.07 13.4 56 47 2.5 36.5
09:05 1020 30.12 849 25.07 13.2 55.8 44 1.2 34.1
09:10 1020 30.12 849 25.07 13.4 56 41 0.5 32.9
09:15 1020 30.12 849 25.07 13.7 56.6 40 0.5 32.9
09:20 1020 30.12 849 25.07 14.5 58.1 39 0.7 33.2
09:25 1020 30.12 849 25.07 15.1 59.2 39 1.3 34.4
09:30 1020 30.12 849 25.07 15.3 59.5 38 1.3 34.4
09:35 1020 30.12 849 25.07 15 58.9 37 0.5 32.9
09:40 1020 30.12 849 25.07 14.4 58 38 0.5 32.9
09:45 1020 30.12 849 25.07 15 59 38 0.7 33.3
09:50 1020 30.12 849 25.07 15.4 59.7 37 1 33.8
09:55 1020 30.12 849 25.07 15.5 59.9 33 -0.7 30.7
10:00 1020 30.12 849 25.07 14.9 58.8 32 -1.5 29.4
10:05 1020 30.12 849 25.07 14.8 58.7 37 0.2 32.4
10:10 1020 30.12 849 25.07 14.6 58.3 37 0.1 32.2
10:15 1020 30.12 849 25.07 14.9 58.9 36 0 32
10:20 1020 30.12 849 25.07 15.2 59.3 35 0 32.1
10:25 1020 30.12 849 25.07 14.7 58.5 36 -0.2 31.7
10:30 1020 30.12 849 25.07 14.7 58.5 36 -0.2 31.6
10:35 1020 30.12 849 25.07 15.2 59.4 35 -0.2 31.6
10:40 1020 30.12 849 25.07 15.7 60.2 34 -0.2 31.7
10:45 1020 30.12 849 25.07 15.1 59.1 35 -0.3 31.5
10:50 1020 30.12 849 25.07 14.7 58.4 36 -0 32
10:55 1020 30.12 849 25.07 14.3 57.7 41 1.3 34.3
11:00 1020 30.12 849 25.07 14.3 57.8 40 1 33.8
11:05 1020 30.12 849 25.07 14.3 57.8 37 -0 31.9
11:10 1020 30.12 849 25.07 14.4 57.9 36 -0.5 31.2
11:15 1020 30.12 849 25.07 14.7 58.4 35 -0.4 31.3
11:20 1020 30.12 849 25.07 15.7 60.3 33 -0.5 31.1
11:25 1020 30.12 849 25.07 16.1 61 33 -0.2 31.7
11:30 1020 30.12 849 25.07 16.4 61.4 31 -0.6 30.9
11:35 1020 30.12 849 25.07 16.3 61.3 31 -0.9 30.4
11:40 1020 30.12 849 25.07 16.5 61.7 29 -1.5 29.2
11:45 1020 30.12 849 25.07 16.7 62 29 -1.3 29.6
11:50 1020 30.12 849 25.07 17.1 62.8 28 -1.3 29.6
11:55 1020 30.12 849 25.07 17.4 63.2 25 -2.6 27.4
12:00 1020 30.12 849 25.07 16.8 62.2 26 -2.6 27.4
12:05 1020 30.12 849 25.07 16.4 61.6 28 -2.2 28.1
12:10 1020 30.12 849 25.07 16.2 61.1 24 -4.2 24.4
12:15 1020 30.12 849 25.07 16.2 61.1 25 -3.9 25
12:20 1020 30.12 849 25.07 16.3 61.4 24 -4.4 24.1
12:25 1020 30.12 849 25.07 17 62.5 21 -5.3 22.4
12:30 1020 30.12 849 25.07 17.5 63.6 21 -4.6 23.7
12:35 1020 30.12 849 25.07 17.7 63.8 21 -4.9 23.2
12:40 1020 30.12 849 25.07 18 64.3 20 -5.4 22.4
12:45 1020 30.12 849 25.07 17.2 62.9 19 -6.4 20.6
12:50 1020 30.12 849 25.07 17.1 62.7 17 -8.3 17
12:55 1020 30.12 849 25.07 17.5 63.5 18 -7 19.4
13:00 1020 30.12 849 25.07 17.6 63.7 18 -6.7 19.9
13:05 1020 30.12 849 25.07 17.9 64.3 18 -6.8 19.7
13:10 1020 30.12 849 25.07 18 64.5 18 -6.7 19.9
13:15 1020 30.12 849 25.07 17.8 64 20 -5.3 22.4
13:20 1020 30.12 849 25.07 17.9 64.3 20 -5.2 22.6
13:25 1020 30.12 849 25.07 17.6 63.7 21 -5.1 22.8
13:30 1020 30.12 849 25.07 17.2 63 19 -6.4 20.5
13:35 1020 30.12 849 25.07 17.5 63.5 21 -5.3 22.5
13:40 1020 30.12 849 25.07 17.8 64.1 22 -3.8 25.1
13:45 1020 30.12 849 25.07 17.8 64 22 -4.3 24.3
13:50 1020 30.12 849 25.07 17.7 63.8 21 -4.8 23.4
13:55 1020 30.12 849 25.07 17.9 64.2 21 -4.9 23.2
14:00 1020 30.12 849 25.07 18.3 64.9 20 -4.6 23.6
14:05 1020 30.12 850 25.1 17.4 63.3 20 -5.8 21.6
14:10 1020 30.12 850 25.1 17.5 63.5 18 -6.9 19.6
14:15 1020 30.12 850 25.1 17.8 64.1 21 -4.6 23.7
14:20 1020 30.12 850 25.1 17.2 62.9 20 -5.7 21.7
14:25 1020 30.12 850 25.1 17.2 62.9 18 -7.4 18.7
14:30 1020 30.12 850 25.1 17.8 64 20 -5.7 21.8
14:35 1020 30.12 849 25.07 18 64.5 20 -5.4 22.2
14:40 1020 30.12 850 25.1 17.4 63.4 22 -4.3 24.3
14:45 1020 30.12 850 25.1 17.5 63.5 20 -5.6 22
14:50 1020 30.12 850 25.1 17.4 63.3 20 -5.8 21.6
14:55 1020 30.12 850 25.1 18.1 64.6 20 -5.1 22.8
15:00 1020 30.12 849 25.07 18.3 64.9 19 -5.7 21.8
15:05 1020 30.12 850 25.1 18.2 64.8 17 -7.1 19.3
15:10 1020 30.12 849 25.07 18.2 64.7 16 -7.7 18.2
15:15 1020 30.12 850 25.1 18 64.4 17 -7.1 19.2
15:20 1020 30.12 850 25.1 18.4 65.1 15 -8.3 17
15:25 1020 30.12 849 25.07 18.5 65.3 17 -7.2 19
15:30 1020 30.12 849 25.07 18.3 65 16 -7.5 18.5
15:35 1020 30.12 850 25.1 17.4 63.4 19 -6.3 20.6
15:40 1020 30.12 850 25.1 16.8 62.2 20 -6.4 20.4
15:45 1020 30.12 850 25.1 17.5 63.4 15 -9 15.8
15:50 1020 30.12 849 25.07 18 64.5 16 -8.2 17.3
15:55 1020 30.12 850 25.1 18.3 64.9 18 -6.1 21.1
16:00 1020 30.12 849 25.07 18.4 65 17 -6.8 19.8
16:05 1020 30.12 850 25.1 17.7 63.9 17 -7.9 17.9
16:10 1020 30.12 849 25.07 17.8 64 19 -6 21.2
16:15 1020 30.12 849 25.07 17.8 64.1 19 -5.7 21.7
16:20 1020 30.12 849 25.07 17.8 64 19 -6.2 20.9
16:25 1020 30.12 849 25.07 17.7 63.9 21 -4.8 23.3
16:30 1020 30.12 849 25.07 17.5 63.5 19 -6.1 21
16:35 1020 30.12 850 25.1 17.4 63.4 19 -6.5 20.3
16:40 1020 30.12 850 25.1 17.4 63.2 19 -6.2 20.9
16:45 1020 30.12 850 25.1 17.6 63.6 21 -4.8 23.3
16:50 1020 30.12 850 25.1 17 62.6 22 -4.9 23.3
16:55 1020 30.12 850 25.1 17 62.6 22 -4.7 23.5
17:00 1020 30.12 850 25.1 17.3 63.1 21 -5.2 22.7
17:05 1020 30.12 850 25.1 17.1 62.7 20 -6.1 21
17:10 1020 30.12 850 25.1 17.2 62.9 18 -7.3 18.9
17:15 1020 30.12 850 25.1 16.9 62.4 20 -6.3 20.7
17:20 1021 30.15 850 25.1 17 62.6 20 -5.9 21.4
17:25 1021 30.15 850 25.1 16.8 62.3 19 -7.2 19.1
17:30 1021 30.15 850 25.1 17.1 62.7 20 -6.2 20.8
17:35 1021 30.15 850 25.1 17 62.7 20 -5.8 21.5
17:40 1021 30.15 850 25.1 16.8 62.2 21 -5.4 22.3
17:45 1021 30.15 850 25.1 16.6 61.9 22 -5.4 22.3
17:50 1021 30.15 850 25.1 16.2 61.2 22 -5.3 22.5
17:55 1021 30.15 850 25.1 16 60.8 22 -5.8 21.5
18:00 1021 30.15 850 25.1 16 60.9 22 -5.5 22.1
18:05 1021 30.15 850 25.1 15.9 60.7 22 -5.5 22.1
18:10 1021 30.15 850 25.1 16.3 61.3 22 -5.4 22.2
18:15 1021 30.15 850 25.1 16.2 61.1 23 -5 23.1
18:20 1021 30.15 850 25.1 15.9 60.6 21 -6.2 20.8
18:25 1021 30.15 850 25.1 15.9 60.5 22 -5.5 22.1
18:30 1021 30.15 850 25.1 15.6 60.1 23 -5.6 21.9
18:35 1021 30.15 850 25.1 15.6 60 23 -5.7 21.8
18:40 1021 30.15 850 25.1 15.7 60.2 23 -5.4 22.2
18:45 1021 30.15 850 25.1 15.6 60.1 23 -5.4 22.3
18:50 1021 30.15 850 25.1 15.5 59.8 25 -4.4 24.1
18:55 1021 30.15 850 25.1 15.1 59.2 26 -4.2 24.5
19:00 1021 30.15 850 25.1 15 59 26 -4.2 24.4
19:05 1021 30.15 850 25.1 14.8 58.7 27 -4.1 24.6
19:10 1021 30.15 850 25.1 14.8 58.6 27 -4 24.7
19:15 1021 30.15 850 25.1 14.7 58.4 28 -3.8 25.2
19:20 1021 30.15 850 25.1 14.6 58.3 28 -3.9 25
19:25 1021 30.15 850 25.1 14.6 58.3 28 -3.5 25.7
19:30 1021 30.15 850 25.1 14.5 58.2 29 -3.3 26.1
19:35 1021 30.15 850 25.1 14.4 57.8 30 -2.9 26.7
19:40 1021 30.15 850 25.1 14.2 57.5 30 -3 26.6
19:45 1021 30.15 851 25.13 14.1 57.4 30 -3.1 26.4
19:50 1021 30.15 851 25.13 14.1 57.3 30 -3.1 26.5
19:55 1021 30.15 851 25.13 13.9 57.1 31 -2.9 26.7
20:00 1021 30.15 851 25.13 13.7 56.6 32 -2.8 27
20:05 1021 30.15 851 25.13 13.5 56.2 32 -2.9 26.8
20:10 1021 30.15 851 25.13 13.4 56.1 32 -3.1 26.4
20:15 1022 30.18 851 25.13 13.2 55.8 32 -3.1 26.5
20:20 1022 30.18 851 25.13 13.1 55.5 33 -3 26.6
20:25 1022 30.18 851 25.13 13 55.3 32 -3.2 26.2
20:30 1022 30.18 851 25.13 12.9 55.2 31 -3.6 25.4
20:35 1022 30.18 851 25.13 12.9 55.2 32 -3.5 25.7
20:40 1022 30.18 851 25.13 12.8 55 32 -3.5 25.7
20:45 1022 30.18 851 25.13 12.7 54.8 32 -3.5 25.7
20:50 1022 30.18 851 25.13 12.6 54.6 32 -3.5 25.6
20:55 1022 30.18 851 25.13 12.5 54.6 33 -3.4 25.9
21:00 1022 30.18 851 25.13 12.4 54.4 33 -3.4 25.8
21:05 1022 30.18 852 25.16 12.3 54.2 33 -3.6 25.6
21:10 1022 30.18 852 25.16 12.3 54.1 34 -3.2 26.2
21:15 1022 30.18 852 25.16 12.1 53.8 34 -3.4 25.8
21:20 1022 30.18 852 25.16 12 53.5 34 -3.5 25.7
21:25 1023 30.21 852 25.16 11.9 53.4 34 -3.4 25.8
21:30 1023 30.21 852 25.16 11.8 53.2 34 -3.6 25.6
21:35 1023 30.21 852 25.16 11.7 53 36 -2.8 27
21:40 1023 30.21 852 25.16 11.1 52 46 -0.1 31.8
21:45 1023 30.21 852 25.16 9.7 49.5 49 -0.3 31.4
21:50 1023 30.21 852 25.16 9.5 49.1 44 -2.2 28
21:55 1023 30.21 852 25.16 10 50 45 -1.5 29.3
22:00 1023 30.21 852 25.16 10 49.9 46 -1.1 30.1
22:05 1023 30.21 852 25.16 9.8 49.7 48 -0.7 30.7
22:10 1023 30.21 852 25.16 9.4 48.9 51 -0.2 31.6
22:15 1023 30.21 852 25.16 9.1 48.3 52 -0.1 31.8
22:20 1023 30.21 852 25.16 8.9 48 53 -0 32
22:25 1023 30.21 852 25.16 8.8 47.8 54 -0 32
22:30 1023 30.21 852 25.16 8.7 47.7 55 0.1 32.2
22:35 1023 30.21 852 25.16 8.5 47.4 55 0.1 32.2
22:40 1023 30.21 852 25.16 8.4 47.2 55 -0.1 31.9
22:45 1023 30.21 852 25.16 8.5 47.2 55 -0.1 31.9
22:50 1023 30.21 852 25.16 8.5 47.2 55 -0.1 31.9
22:55 1023 30.21 852 25.16 8.4 47 55 -0.1 31.8
23:00 1023 30.21 852 25.16 8.3 46.9 55 -0.2 31.7
23:05 1023 30.21 852 25.16 8.2 46.8 55 -0.2 31.7
23:10 1023 30.21 852 25.16 8.2 46.7 56 -0.1 31.8
23:15 1023 30.21 852 25.16 8 46.3 56 -0.2 31.6
23:20 1023 30.21 852 25.16 7.9 46.2 56 -0.2 31.6
23:25 1023 30.21 852 25.16 7.9 46.3 56 -0.3 31.5
23:30 1023 30.21 852 25.16 7.7 45.8 56 -0.5 31.1
23:35 1023 30.21 852 25.16 7.5 45.5 58 -0.2 31.6
23:40 1023 30.21 852 25.16 7.5 45.4 58 -0.4 31.4
23:45 1023 30.21 852 25.16 7.2 45 56 -0.8 30.5
23:50 1023 30.21 852 25.16 6.6 43.9 58 -1 30.3
23:55 1023 30.21 852 25.16 6.4 43.5 59 -1.1 30.1
24:00 1023 30.21 852 25.16 6.2 43.2 60 -1 30.3